createdAt,value
2023-03-29T00:00:07.042Z,95711.00
2023-03-29T00:01:07.050Z,95715.00
2023-03-29T00:02:07.127Z,95717.00
2023-03-29T00:03:07.370Z,95723.00
2023-03-29T00:04:07.275Z,95719.00
2023-03-29T00:05:07.268Z,95729.00
2023-03-29T00:06:07.244Z,95731.00
2023-03-29T00:07:07.292Z,95737.00
2023-03-29T00:08:07.375Z,95748.00
2023-03-29T00:09:07.309Z,95754.00
2023-03-29T00:10:07.311Z,95756.00
2023-03-29T00:11:07.383Z,95758.00
2023-03-29T00:12:07.416Z,95756.00
2023-03-29T00:13:07.438Z,95760.00
2023-03-29T00:14:07.466Z,95764.00
2023-03-29T00:15:07.424Z,95764.00
2023-03-29T00:16:07.449Z,95760.00
2023-03-29T00:17:07.482Z,95756.00
2023-03-29T00:18:07.501Z,95758.00
2023-03-29T00:19:07.530Z,95754.00
2023-03-29T00:20:07.592Z,95762.00
2023-03-29T00:21:07.604Z,95758.00
2023-03-29T00:22:07.670Z,95752.00
2023-03-29T00:23:07.780Z,95748.00
2023-03-29T00:24:07.715Z,95750.00
2023-03-29T00:25:07.745Z,95750.00
2023-03-29T00:26:08.331Z,95756.00
2023-03-29T00:27:07.801Z,95764.00
2023-03-29T00:28:07.802Z,95768.00
2023-03-29T00:29:07.807Z,95772.00
2023-03-29T00:30:07.823Z,95776.00
2023-03-29T00:31:07.914Z,95778.00
2023-03-29T00:32:07.880Z,95774.00
2023-03-29T00:33:07.905Z,95776.00
2023-03-29T00:34:07.885Z,95778.00
2023-03-29T00:35:07.895Z,95776.00
2023-03-29T00:36:07.950Z,95778.00
2023-03-29T00:37:07.918Z,95780.00
2023-03-29T00:38:07.976Z,95782.00
2023-03-29T00:39:08.004Z,95784.00
2023-03-29T00:40:07.986Z,95789.00
2023-03-29T00:41:08.007Z,95786.00
2023-03-29T00:42:08.042Z,95789.00
2023-03-29T00:43:08.105Z,95797.00
2023-03-29T00:44:08.131Z,95799.00
2023-03-29T00:45:08.162Z,95795.00
2023-03-29T00:46:08.266Z,95795.00
2023-03-29T00:47:08.271Z,95797.00
2023-03-29T00:48:08.494Z,95801.00
2023-03-29T00:49:08.370Z,95803.00
2023-03-29T00:50:08.316Z,95797.00
2023-03-29T00:51:09.993Z,95797.00
2023-03-29T00:52:08.392Z,95793.00
2023-03-29T00:53:08.398Z,95797.00
2023-03-29T00:54:08.456Z,95791.00
2023-03-29T00:55:08.454Z,95789.00
2023-03-29T00:56:08.496Z,95791.00
2023-03-29T00:57:08.584Z,95789.00
2023-03-29T00:58:08.572Z,95789.00
2023-03-29T00:59:08.569Z,95797.00
2023-03-29T01:00:08.624Z,95807.00
2023-03-29T01:01:08.676Z,95807.00
2023-03-29T01:02:08.796Z,95813.00
2023-03-29T01:03:08.859Z,95809.00
2023-03-29T01:04:08.896Z,95817.00
2023-03-29T01:05:08.821Z,95821.00
2023-03-29T01:06:08.827Z,95821.00
2023-03-29T01:07:08.885Z,95819.00
2023-03-29T01:08:08.834Z,95821.00
2023-03-29T01:09:08.907Z,95817.00
2023-03-29T01:10:08.942Z,95817.00
2023-03-29T01:11:09.045Z,95811.00
2023-03-29T01:12:09.053Z,95803.00
2023-03-29T01:13:09.145Z,95807.00
2023-03-29T01:14:09.164Z,95809.00
2023-03-29T01:15:09.200Z,95811.00
2023-03-29T01:16:09.286Z,95817.00
2023-03-29T01:17:09.338Z,95813.00
2023-03-29T01:18:09.412Z,95809.00
2023-03-29T01:19:09.395Z,95805.00
2023-03-29T01:20:09.391Z,95801.00
2023-03-29T01:21:09.409Z,95799.00
2023-03-29T01:22:09.458Z,95791.00
2023-03-29T01:23:09.468Z,95793.00
2023-03-29T01:24:09.460Z,95793.00
2023-03-29T01:25:09.472Z,95799.00
2023-03-29T01:26:09.526Z,95801.00
2023-03-29T01:27:09.539Z,95803.00
2023-03-29T01:28:09.654Z,95801.00
2023-03-29T01:29:09.649Z,95797.00
2023-03-29T01:30:09.663Z,95795.00
2023-03-29T01:31:09.733Z,95799.00
2023-03-29T01:32:09.800Z,95797.00
2023-03-29T01:33:09.790Z,95795.00
2023-03-29T01:34:09.834Z,95793.00
2023-03-29T01:35:09.860Z,95795.00
2023-03-29T01:36:09.964Z,95801.00
2023-03-29T01:37:09.966Z,95803.00
2023-03-29T01:38:10.029Z,95807.00
2023-03-29T01:39:10.091Z,95803.00
2023-03-29T01:40:10.214Z,95801.00
2023-03-29T01:41:10.190Z,95801.00
2023-03-29T01:42:10.277Z,95801.00
2023-03-29T01:43:10.380Z,95795.00
2023-03-29T01:44:10.396Z,95789.00
2023-03-29T01:45:10.459Z,95786.00
2023-03-29T01:46:10.763Z,95780.00
2023-03-29T01:47:10.556Z,95786.00
2023-03-29T01:48:10.670Z,95788.00
2023-03-29T01:49:10.743Z,95784.00
2023-03-29T01:50:10.719Z,95786.00
2023-03-29T01:51:10.765Z,95786.00
2023-03-29T01:52:10.791Z,95784.00
2023-03-29T01:53:10.920Z,95788.00
2023-03-29T01:54:10.903Z,95784.00
2023-03-29T01:55:10.977Z,95784.00
2023-03-29T01:56:10.974Z,95784.00
2023-03-29T01:57:11.056Z,95782.00
2023-03-29T01:58:11.093Z,95784.00
2023-03-29T01:59:11.095Z,95782.00
2023-03-29T02:00:11.141Z,95786.00
2023-03-29T02:01:11.232Z,95784.00
2023-03-29T02:02:11.321Z,95778.00
2023-03-29T02:03:11.414Z,95780.00
2023-03-29T02:04:11.292Z,95786.00
2023-03-29T02:05:11.286Z,95786.00
2023-03-29T02:06:11.341Z,95782.00
2023-03-29T02:07:11.420Z,95782.00
2023-03-29T02:08:11.468Z,95778.00
2023-03-29T02:09:11.474Z,95776.00
2023-03-29T02:10:11.497Z,95774.00
2023-03-29T02:11:11.541Z,95772.00
2023-03-29T02:12:11.612Z,95778.00
2023-03-29T02:13:11.704Z,95770.00
2023-03-29T02:14:11.707Z,95772.00
2023-03-29T02:15:11.772Z,95768.00
2023-03-29T02:16:11.871Z,95760.00
2023-03-29T02:17:11.827Z,95762.00
2023-03-29T02:18:11.937Z,95760.00
2023-03-29T02:19:11.946Z,95760.00
2023-03-29T02:20:11.955Z,95762.00
2023-03-29T02:21:12.007Z,95760.00
2023-03-29T02:22:12.081Z,95752.00
2023-03-29T02:23:12.096Z,95748.00
2023-03-29T02:24:12.140Z,95748.00
2023-03-29T02:25:12.147Z,95748.00
2023-03-29T02:26:12.156Z,95754.00
2023-03-29T02:27:12.161Z,95754.00
2023-03-29T02:28:12.191Z,95754.00
2023-03-29T02:29:12.115Z,95754.00
2023-03-29T02:30:12.168Z,95752.00
2023-03-29T02:31:12.229Z,95750.00
2023-03-29T02:32:12.239Z,95752.00
2023-03-29T02:33:12.260Z,95752.00
2023-03-29T02:34:12.252Z,95748.00
2023-03-29T02:35:12.275Z,95754.00
2023-03-29T02:36:12.296Z,95756.00
2023-03-29T02:37:12.316Z,95754.00
2023-03-29T02:38:12.388Z,95758.00
2023-03-29T02:39:12.390Z,95764.00
2023-03-29T02:40:12.405Z,95760.00
2023-03-29T02:41:12.445Z,95760.00
2023-03-29T02:42:12.466Z,95760.00
2023-03-29T02:43:12.474Z,95752.00
2023-03-29T02:44:12.506Z,95756.00
2023-03-29T02:45:12.533Z,95756.00
2023-03-29T02:46:12.591Z,95752.00
2023-03-29T02:47:12.605Z,95750.00
2023-03-29T02:48:12.682Z,95752.00
2023-03-29T02:49:12.757Z,95754.00
2023-03-29T02:50:12.733Z,95748.00
2023-03-29T02:51:12.836Z,95746.00
2023-03-29T02:52:12.907Z,95748.00
2023-03-29T02:53:12.917Z,95742.00
2023-03-29T02:54:12.917Z,95742.00
2023-03-29T02:55:12.961Z,95737.00
2023-03-29T02:56:12.935Z,95735.00
2023-03-29T02:57:13.042Z,95733.00
2023-03-29T02:58:13.050Z,95733.00
2023-03-29T02:59:13.050Z,95733.00
2023-03-29T03:00:13.074Z,95735.00
2023-03-29T03:01:13.117Z,95735.00
2023-03-29T03:02:13.095Z,95733.00
2023-03-29T03:03:13.267Z,95731.00
2023-03-29T03:04:13.409Z,95733.00
2023-03-29T03:05:13.141Z,95735.00
2023-03-29T03:06:13.140Z,95738.00
2023-03-29T03:07:13.163Z,95735.00
2023-03-29T03:08:13.164Z,95731.00
2023-03-29T03:09:13.191Z,95729.00
2023-03-29T03:10:13.250Z,95725.00
2023-03-29T03:11:13.293Z,95733.00
2023-03-29T03:12:13.324Z,95733.00
2023-03-29T03:13:13.393Z,95737.00
2023-03-29T03:14:13.434Z,95733.00
2023-03-29T03:15:13.506Z,95735.00
2023-03-29T03:16:13.590Z,95731.00
2023-03-29T03:17:13.537Z,95731.00
2023-03-29T03:18:13.519Z,95733.00
2023-03-29T03:19:13.524Z,95733.00
2023-03-29T03:20:13.608Z,95735.00
2023-03-29T03:21:13.616Z,95737.00
2023-03-29T03:22:13.669Z,95738.00
2023-03-29T03:23:13.740Z,95740.00
2023-03-29T03:24:13.781Z,95742.00
2023-03-29T03:25:13.853Z,95744.00
2023-03-29T03:26:13.898Z,95744.00
2023-03-29T03:27:13.962Z,95746.00
2023-03-29T03:28:14.030Z,95746.00
2023-03-29T03:29:14.035Z,95750.00
2023-03-29T03:30:14.022Z,95754.00
2023-03-29T03:31:14.135Z,95754.00
2023-03-29T03:32:14.110Z,95758.00
2023-03-29T03:33:14.136Z,95762.00
2023-03-29T03:34:14.186Z,95762.00
2023-03-29T03:35:14.226Z,95760.00
2023-03-29T03:36:14.271Z,95766.00
2023-03-29T03:37:14.282Z,95764.00
2023-03-29T03:38:14.289Z,95772.00
2023-03-29T03:39:14.337Z,95768.00
2023-03-29T03:40:14.309Z,95772.00
2023-03-29T03:41:14.313Z,95774.00
2023-03-29T03:42:14.380Z,95776.00
2023-03-29T03:43:14.454Z,95782.00
2023-03-29T03:44:14.443Z,95782.00
2023-03-29T03:45:15.422Z,95780.00
2023-03-29T03:46:14.552Z,95784.00
2023-03-29T03:47:14.517Z,95780.00
2023-03-29T03:48:14.528Z,95780.00
2023-03-29T03:49:14.528Z,95776.00
2023-03-29T03:50:14.565Z,95774.00
2023-03-29T03:51:14.639Z,95770.00
2023-03-29T03:52:14.705Z,95768.00
2023-03-29T03:53:14.746Z,95766.00
2023-03-29T03:54:14.763Z,95766.00
2023-03-29T03:55:14.834Z,95766.00
2023-03-29T03:56:14.891Z,95760.00
2023-03-29T03:57:14.938Z,95756.00
2023-03-29T03:58:14.926Z,95754.00
2023-03-29T03:59:14.951Z,95758.00
2023-03-29T04:00:15.057Z,95760.00
2023-03-29T04:01:15.123Z,95756.00
2023-03-29T04:02:15.196Z,95760.00
2023-03-29T04:03:15.401Z,95756.00
2023-03-29T04:04:15.336Z,95754.00
2023-03-29T04:05:15.362Z,95754.00
2023-03-29T04:06:15.390Z,95752.00
2023-03-29T04:07:15.441Z,95754.00
2023-03-29T04:08:15.488Z,95750.00
2023-03-29T04:09:15.510Z,95748.00
2023-03-29T04:10:15.540Z,95748.00
2023-03-29T04:11:15.648Z,95748.00
2023-03-29T04:12:15.684Z,95750.00
2023-03-29T04:13:15.706Z,95746.00
2023-03-29T04:14:15.767Z,95742.00
2023-03-29T04:15:15.781Z,95740.00
2023-03-29T04:16:15.838Z,95733.00
2023-03-29T04:17:15.844Z,95731.00
2023-03-29T04:18:16.134Z,95729.00
2023-03-29T04:19:15.955Z,95727.00
2023-03-29T04:20:16.046Z,95725.00
2023-03-29T04:21:16.085Z,95723.00
2023-03-29T04:22:16.133Z,95723.00
2023-03-29T04:23:16.212Z,95711.00
2023-03-29T04:24:16.308Z,95713.00
2023-03-29T04:25:16.297Z,95713.00
2023-03-29T04:26:16.308Z,95713.00
2023-03-29T04:27:16.352Z,95713.00
2023-03-29T04:28:16.434Z,95713.00
2023-03-29T04:29:16.510Z,95719.00
2023-03-29T04:30:16.576Z,95715.00
2023-03-29T04:31:16.699Z,95723.00
2023-03-29T04:32:16.749Z,95721.00
2023-03-29T04:33:16.815Z,95721.00
2023-03-29T04:34:16.935Z,95721.00
2023-03-29T04:35:16.963Z,95717.00
2023-03-29T04:36:17.034Z,95713.00
2023-03-29T04:37:16.956Z,95703.00
2023-03-29T04:38:16.960Z,95693.00
2023-03-29T04:39:16.919Z,95697.00
2023-03-29T04:40:16.912Z,95701.00
2023-03-29T04:41:16.910Z,95701.00
2023-03-29T04:42:16.881Z,95701.00
2023-03-29T04:43:16.915Z,95701.00
2023-03-29T04:44:16.844Z,95699.00
2023-03-29T04:45:16.903Z,95699.00
2023-03-29T04:46:16.897Z,95689.00
2023-03-29T04:47:16.916Z,95686.00
2023-03-29T04:48:16.936Z,95684.00
2023-03-29T04:49:16.989Z,95682.00
2023-03-29T04:50:16.988Z,95684.00
2023-03-29T04:51:17.045Z,95686.00
2023-03-29T04:52:17.096Z,95687.00
2023-03-29T04:53:17.147Z,95689.00
2023-03-29T04:54:17.178Z,95686.00
2023-03-29T04:55:17.169Z,95686.00
2023-03-29T04:56:17.209Z,95684.00
2023-03-29T04:57:17.255Z,95686.00
2023-03-29T04:58:18.155Z,95686.00
2023-03-29T04:59:17.229Z,95682.00
2023-03-29T05:01:45.118Z,95678.00
2023-03-29T05:02:37.566Z,95678.00
2023-03-29T05:03:37.488Z,95684.00
2023-03-29T05:04:37.523Z,95687.00
2023-03-29T05:05:37.457Z,95686.00
2023-03-29T05:06:37.432Z,95684.00
2023-03-29T05:07:37.434Z,95680.00
2023-03-29T05:08:37.437Z,95676.00
2023-03-29T05:09:37.405Z,95674.00
2023-03-29T05:10:37.442Z,95674.00
2023-03-29T05:11:37.414Z,95676.00
2023-03-29T05:12:37.454Z,95674.00
2023-03-29T05:13:37.429Z,95668.00
2023-03-29T05:14:37.377Z,95674.00
2023-03-29T05:15:39.043Z,95666.00
2023-03-29T05:16:37.414Z,95664.00
2023-03-29T05:17:37.376Z,95662.00
2023-03-29T05:18:37.425Z,95658.00
2023-03-29T05:19:37.378Z,95658.00
2023-03-29T05:20:37.359Z,95662.00
2023-03-29T05:21:37.331Z,95660.00
2023-03-29T05:22:37.333Z,95662.00
2023-03-29T05:23:37.416Z,95664.00
2023-03-29T05:24:37.353Z,95668.00
2023-03-29T05:25:37.317Z,95664.00
2023-03-29T05:26:37.350Z,95660.00
2023-03-29T05:27:37.332Z,95648.00
2023-03-29T05:28:37.366Z,95656.00
2023-03-29T05:29:37.282Z,95644.00
2023-03-29T05:30:37.305Z,95648.00
2023-03-29T05:31:37.331Z,95648.00
2023-03-29T05:32:37.330Z,95656.00
2023-03-29T05:33:37.382Z,95656.00
2023-03-29T05:34:37.297Z,95658.00
2023-03-29T05:35:37.326Z,95646.00
2023-03-29T05:36:37.287Z,95646.00
2023-03-29T05:37:37.356Z,95644.00
2023-03-29T05:38:37.725Z,95656.00
2023-03-29T05:39:37.793Z,95658.00
2023-03-29T05:40:37.256Z,95658.00
2023-03-29T05:41:37.248Z,95660.00
2023-03-29T05:42:37.229Z,95660.00
2023-03-29T05:43:37.263Z,95658.00
2023-03-29T05:44:37.722Z,95656.00
2023-03-29T05:47:05.176Z,95656.00
2023-03-29T05:47:57.377Z,95648.00
2023-03-29T05:48:57.555Z,95656.00
2023-03-29T05:49:57.445Z,95662.00
2023-03-29T05:50:57.386Z,95658.00
2023-03-29T05:51:57.350Z,95656.00
2023-03-29T05:52:57.423Z,95646.00
2023-03-29T05:53:57.325Z,95656.00
2023-03-29T05:54:57.293Z,95648.00
2023-03-29T05:55:57.304Z,95662.00
2023-03-29T05:56:57.398Z,95668.00
2023-03-29T05:57:57.367Z,95670.00
2023-03-29T05:58:57.367Z,95670.00
2023-03-29T05:59:57.499Z,95666.00
2023-03-29T06:00:57.478Z,95670.00
2023-03-29T06:01:57.496Z,95664.00
2023-03-29T06:03:06.466Z,95666.00
2023-03-29T06:03:59.328Z,95668.00
2023-03-29T06:04:57.656Z,95668.00
2023-03-29T06:05:57.523Z,95666.00
2023-03-29T06:06:57.617Z,95662.00
2023-03-29T06:07:57.519Z,95668.00
2023-03-29T06:08:57.487Z,95674.00
2023-03-29T06:09:57.548Z,95674.00
2023-03-29T06:10:57.481Z,95672.00
2023-03-29T06:11:57.510Z,95680.00
2023-03-29T06:12:57.607Z,95682.00
2023-03-29T06:13:57.568Z,95682.00
2023-03-29T06:14:58.040Z,95684.00
2023-03-29T06:15:57.673Z,95687.00
2023-03-29T06:16:57.775Z,95687.00
2023-03-29T06:17:57.801Z,95686.00
2023-03-29T06:18:57.820Z,95680.00
2023-03-29T06:19:57.980Z,95678.00
2023-03-29T06:20:58.014Z,95676.00
2023-03-29T06:21:57.943Z,95678.00
2023-03-29T06:22:57.947Z,95678.00
2023-03-29T06:23:58.044Z,95678.00
2023-03-29T06:24:57.958Z,95682.00
2023-03-29T06:25:58.007Z,95686.00
2023-03-29T06:26:57.970Z,95686.00
2023-03-29T06:27:58.016Z,95686.00
2023-03-29T06:28:57.988Z,95684.00
2023-03-29T06:29:58.043Z,95686.00
2023-03-29T06:30:58.148Z,95686.00
2023-03-29T06:31:58.090Z,95682.00
2023-03-29T06:32:58.175Z,95686.00
2023-03-29T06:33:58.030Z,95689.00
2023-03-29T06:34:58.593Z,95689.00
2023-03-29T06:35:58.162Z,95691.00
2023-03-29T06:36:58.585Z,95689.00
2023-03-29T06:37:58.140Z,95689.00
2023-03-29T06:38:58.251Z,95693.00
2023-03-29T06:39:58.567Z,95691.00
2023-03-29T06:40:58.464Z,95695.00
2023-03-29T06:41:59.029Z,95697.00
2023-03-29T06:42:58.232Z,95697.00
2023-03-29T06:43:58.242Z,95699.00
2023-03-29T06:45:00.255Z,95703.00
2023-03-29T06:46:01.249Z,95709.00
2023-03-29T06:47:05.870Z,95709.00
2023-03-29T06:47:58.771Z,95709.00
2023-03-29T06:48:58.777Z,95709.00
2023-03-29T06:49:58.713Z,95711.00
2023-03-29T06:50:58.583Z,95711.00
2023-03-29T06:51:59.423Z,95711.00
2023-03-29T06:53:02.463Z,95713.00
2023-03-29T06:53:58.300Z,95715.00
2023-03-29T06:54:58.261Z,95711.00
2023-03-29T06:55:58.281Z,95705.00
2023-03-29T06:56:58.287Z,95705.00
2023-03-29T06:57:59.114Z,95709.00
2023-03-29T06:58:59.561Z,95713.00
2023-03-29T07:01:26.128Z,95709.00
2023-03-29T07:02:17.978Z,95705.00
2023-03-29T07:03:18.003Z,95703.00
2023-03-29T07:04:18.255Z,95703.00
2023-03-29T07:05:18.029Z,95701.00
2023-03-29T07:06:18.613Z,95703.00
2023-03-29T07:07:18.056Z,95703.00
2023-03-29T07:08:18.022Z,95703.00
2023-03-29T07:09:19.565Z,95705.00
2023-03-29T07:10:18.169Z,95701.00
2023-03-29T07:11:18.091Z,95701.00
2023-03-29T07:12:18.158Z,95707.00
2023-03-29T07:13:18.160Z,95711.00
2023-03-29T07:14:18.198Z,95721.00
2023-03-29T07:15:18.258Z,95715.00
2023-03-29T07:16:18.319Z,95713.00
2023-03-29T07:17:18.320Z,95711.00
2023-03-29T07:18:18.456Z,95713.00
2023-03-29T07:19:18.500Z,95709.00
2023-03-29T07:20:18.562Z,95713.00
2023-03-29T07:21:18.505Z,95717.00
2023-03-29T07:22:18.580Z,95713.00
2023-03-29T07:23:18.608Z,95709.00
2023-03-29T07:24:18.648Z,95709.00
2023-03-29T07:25:18.699Z,95707.00
2023-03-29T07:26:30.006Z,95711.00
2023-03-29T07:27:18.781Z,95709.00
2023-03-29T07:28:18.696Z,95709.00
2023-03-29T07:29:18.697Z,95711.00
2023-03-29T07:30:19.155Z,95709.00
2023-03-29T07:31:18.737Z,95709.00
2023-03-29T07:32:18.759Z,95709.00
2023-03-29T07:33:18.851Z,95709.00
2023-03-29T07:34:18.706Z,95707.00
2023-03-29T07:35:19.124Z,95707.00
2023-03-29T07:36:18.740Z,95711.00
2023-03-29T07:37:18.723Z,95713.00
2023-03-29T07:38:18.751Z,95709.00
2023-03-29T07:39:18.835Z,95709.00
2023-03-29T07:40:19.050Z,95707.00
2023-03-29T07:41:18.868Z,95713.00
2023-03-29T07:42:18.876Z,95713.00
2023-03-29T07:43:19.003Z,95711.00
2023-03-29T07:44:18.987Z,95711.00
2023-03-29T07:45:19.606Z,95715.00
2023-03-29T07:46:20.180Z,95711.00
2023-03-29T07:47:19.183Z,95713.00
2023-03-29T07:48:19.225Z,95711.00
2023-03-29T07:49:21.004Z,95709.00
2023-03-29T07:50:19.639Z,95707.00
2023-03-29T07:51:19.196Z,95709.00
2023-03-29T07:52:19.133Z,95707.00
2023-03-29T07:53:19.183Z,95703.00
2023-03-29T07:54:26.740Z,95705.00
2023-03-29T07:55:19.134Z,95707.00
2023-03-29T07:56:19.158Z,95705.00
2023-03-29T07:57:19.175Z,95707.00
2023-03-29T07:58:19.194Z,95709.00
2023-03-29T07:59:19.124Z,95707.00
2023-03-29T08:00:19.157Z,95709.00
2023-03-29T08:01:19.902Z,95709.00
2023-03-29T08:02:19.114Z,95709.00
2023-03-29T08:03:19.185Z,95711.00
2023-03-29T08:04:19.188Z,95707.00
2023-03-29T08:05:29.251Z,95703.00
2023-03-29T08:06:20.045Z,95701.00
2023-03-29T08:07:20.101Z,95705.00
2023-03-29T08:08:19.091Z,95707.00
2023-03-29T08:09:19.092Z,95707.00
2023-03-29T08:10:19.056Z,95707.00
2023-03-29T08:11:19.070Z,95709.00
2023-03-29T08:12:19.007Z,95705.00
2023-03-29T08:13:18.980Z,95709.00
2023-03-29T08:14:19.023Z,95715.00
2023-03-29T08:15:19.614Z,95715.00
2023-03-29T08:16:19.021Z,95715.00
2023-03-29T08:17:19.062Z,95717.00
2023-03-29T08:18:19.029Z,95721.00
2023-03-29T08:19:19.208Z,95719.00
2023-03-29T08:20:19.172Z,95715.00
2023-03-29T08:21:19.648Z,95715.00
2023-03-29T08:22:19.093Z,95711.00
2023-03-29T08:23:19.143Z,95711.00
2023-03-29T08:24:20.900Z,95713.00
2023-03-29T08:25:19.565Z,95713.00
2023-03-29T08:26:19.364Z,95715.00
2023-03-29T08:27:19.313Z,95711.00
2023-03-29T08:28:19.286Z,95715.00
2023-03-29T08:29:19.343Z,95711.00
2023-03-29T08:30:19.377Z,95711.00
2023-03-29T08:31:19.398Z,95715.00
2023-03-29T08:32:19.423Z,95713.00
2023-03-29T08:33:19.396Z,95717.00
2023-03-29T08:34:19.423Z,95721.00
2023-03-29T08:35:19.602Z,95719.00
2023-03-29T08:36:19.454Z,95719.00
2023-03-29T08:37:19.446Z,95723.00
2023-03-29T08:38:19.395Z,95723.00
2023-03-29T08:39:19.699Z,95729.00
2023-03-29T08:40:19.672Z,95729.00
2023-03-29T08:41:19.462Z,95725.00
2023-03-29T08:42:19.456Z,95727.00
2023-03-29T08:43:19.674Z,95729.00
2023-03-29T08:44:19.502Z,95737.00
2023-03-29T08:45:19.525Z,95744.00
2023-03-29T08:46:19.532Z,95740.00
2023-03-29T08:47:19.562Z,95742.00
2023-03-29T08:48:19.486Z,95744.00
2023-03-29T08:49:19.495Z,95742.00
2023-03-29T08:50:19.562Z,95738.00
2023-03-29T08:51:19.488Z,95737.00
2023-03-29T08:52:19.485Z,95740.00
2023-03-29T08:53:19.495Z,95735.00
2023-03-29T08:54:19.521Z,95735.00
2023-03-29T08:55:19.561Z,95737.00
2023-03-29T08:56:19.427Z,95738.00
2023-03-29T08:57:19.541Z,95740.00
2023-03-29T08:58:19.568Z,95740.00
2023-03-29T08:59:19.501Z,95740.00
2023-03-29T09:00:19.633Z,95738.00
2023-03-29T09:01:19.629Z,95742.00
2023-03-29T09:02:19.712Z,95733.00
2023-03-29T09:03:19.754Z,95733.00
2023-03-29T09:04:19.732Z,95733.00
2023-03-29T09:05:20.162Z,95735.00
2023-03-29T09:06:19.834Z,95735.00
2023-03-29T09:07:19.909Z,95729.00
2023-03-29T09:08:19.870Z,95735.00
2023-03-29T09:09:19.960Z,95737.00
2023-03-29T09:10:19.949Z,95740.00
2023-03-29T09:11:19.976Z,95740.00
2023-03-29T09:12:20.041Z,95738.00
2023-03-29T09:13:20.142Z,95738.00
2023-03-29T09:14:20.095Z,95733.00
2023-03-29T09:15:20.090Z,95737.00
2023-03-29T09:16:20.197Z,95735.00
2023-03-29T09:17:20.112Z,95737.00
2023-03-29T09:18:20.181Z,95735.00
2023-03-29T09:19:20.137Z,95729.00
2023-03-29T09:20:20.616Z,95731.00
2023-03-29T09:21:20.226Z,95733.00
2023-03-29T09:22:20.244Z,95735.00
2023-03-29T09:23:20.290Z,95735.00
2023-03-29T09:24:20.330Z,95737.00
2023-03-29T09:25:20.609Z,95735.00
2023-03-29T09:26:20.397Z,95733.00
2023-03-29T09:27:20.374Z,95733.00
2023-03-29T09:28:20.388Z,95733.00
2023-03-29T09:29:20.390Z,95733.00
2023-03-29T09:30:20.554Z,95737.00
2023-03-29T09:31:20.481Z,95733.00
2023-03-29T09:32:20.417Z,95733.00
2023-03-29T09:33:20.427Z,95733.00
2023-03-29T09:34:20.433Z,95733.00
2023-03-29T09:35:20.600Z,95729.00
2023-03-29T09:36:20.580Z,95733.00
2023-03-29T09:37:20.616Z,95731.00
2023-03-29T09:38:20.680Z,95731.00
2023-03-29T09:39:20.973Z,95731.00
2023-03-29T09:40:21.777Z,95727.00
2023-03-29T09:41:20.853Z,95725.00
2023-03-29T09:42:20.988Z,95725.00
2023-03-29T09:43:20.641Z,95719.00
2023-03-29T09:44:30.329Z,95719.00
2023-03-29T09:45:22.036Z,95719.00
2023-03-29T09:46:20.701Z,95715.00
2023-03-29T09:47:20.653Z,95715.00
2023-03-29T09:48:20.648Z,95723.00
2023-03-29T09:49:20.700Z,95725.00
2023-03-29T09:50:30.730Z,95725.00
2023-03-29T09:51:21.648Z,95723.00
2023-03-29T09:52:20.658Z,95721.00
2023-03-29T09:53:20.693Z,95719.00
2023-03-29T09:54:20.776Z,95715.00
2023-03-29T09:55:20.930Z,95715.00
2023-03-29T09:56:20.854Z,95717.00
2023-03-29T09:57:20.958Z,95717.00
2023-03-29T09:58:20.928Z,95719.00
2023-03-29T09:59:20.986Z,95717.00
2023-03-29T10:00:21.023Z,95713.00
2023-03-29T10:01:21.731Z,95715.00
2023-03-29T10:02:22.727Z,95709.00
2023-03-29T10:03:21.173Z,95707.00
2023-03-29T10:04:21.620Z,95707.00
2023-03-29T10:05:20.972Z,95705.00
2023-03-29T10:06:21.051Z,95703.00
2023-03-29T10:07:20.925Z,95699.00
2023-03-29T10:08:21.024Z,95701.00
2023-03-29T10:09:21.985Z,95699.00
2023-03-29T10:10:20.996Z,95695.00
2023-03-29T10:11:20.953Z,95697.00
2023-03-29T10:12:20.988Z,95697.00
2023-03-29T10:13:20.907Z,95693.00
2023-03-29T10:14:20.918Z,95691.00
2023-03-29T10:15:29.166Z,95691.00
2023-03-29T10:16:22.029Z,95689.00
2023-03-29T10:17:20.979Z,95687.00
2023-03-29T10:18:20.958Z,95689.00
2023-03-29T10:19:20.845Z,95689.00
2023-03-29T10:20:20.949Z,95686.00
2023-03-29T10:21:21.014Z,95686.00
2023-03-29T10:22:20.843Z,95687.00
2023-03-29T10:23:20.818Z,95686.00
2023-03-29T10:24:20.808Z,95686.00
2023-03-29T10:25:20.850Z,95693.00
2023-03-29T10:26:21.169Z,95691.00
2023-03-29T10:27:20.917Z,95689.00
2023-03-29T10:28:20.876Z,95684.00
2023-03-29T10:29:21.021Z,95684.00
2023-03-29T10:30:20.927Z,95686.00
2023-03-29T10:31:21.144Z,95687.00
2023-03-29T10:32:20.984Z,95686.00
2023-03-29T10:33:20.970Z,95689.00
2023-03-29T10:34:21.094Z,95689.00
2023-03-29T10:35:21.058Z,95689.00
2023-03-29T10:36:21.097Z,95687.00
2023-03-29T10:37:21.207Z,95687.00
2023-03-29T10:38:21.371Z,95687.00
2023-03-29T10:39:21.354Z,95686.00
2023-03-29T10:40:21.370Z,95687.00
2023-03-29T10:41:21.201Z,95689.00
2023-03-29T10:42:21.258Z,95686.00
2023-03-29T10:43:21.285Z,95684.00
2023-03-29T10:44:21.292Z,95680.00
2023-03-29T10:45:21.258Z,95678.00
2023-03-29T10:46:21.397Z,95678.00
2023-03-29T10:47:22.096Z,95680.00
2023-03-29T10:48:21.317Z,95678.00
2023-03-29T10:49:21.314Z,95680.00
2023-03-29T10:50:21.665Z,95680.00
2023-03-29T10:51:21.444Z,95682.00
2023-03-29T10:52:21.499Z,95682.00
2023-03-29T10:53:21.472Z,95687.00
2023-03-29T10:54:21.503Z,95682.00
2023-03-29T10:55:21.536Z,95672.00
2023-03-29T10:56:21.592Z,95678.00
2023-03-29T10:57:22.802Z,95678.00
2023-03-29T10:58:21.592Z,95684.00
2023-03-29T10:59:21.613Z,95682.00
2023-03-29T11:00:21.633Z,95678.00
2023-03-29T11:01:21.801Z,95674.00
2023-03-29T11:02:22.442Z,95674.00
2023-03-29T11:03:21.955Z,95674.00
2023-03-29T11:04:21.733Z,95674.00
2023-03-29T11:05:21.746Z,95680.00
2023-03-29T11:06:21.780Z,95678.00
2023-03-29T11:07:21.751Z,95678.00
2023-03-29T11:08:21.818Z,95678.00
2023-03-29T11:09:21.798Z,95678.00
2023-03-29T11:10:21.704Z,95676.00
2023-03-29T11:11:21.865Z,95676.00
2023-03-29T11:12:21.885Z,95670.00
2023-03-29T11:13:21.889Z,95670.00
2023-03-29T11:14:21.832Z,95668.00
2023-03-29T11:15:21.995Z,95666.00
2023-03-29T11:16:33.634Z,95666.00
2023-03-29T11:17:22.087Z,95662.00
2023-03-29T11:18:21.999Z,95664.00
2023-03-29T11:19:21.938Z,95664.00
2023-03-29T11:20:21.966Z,95662.00
2023-03-29T11:21:22.111Z,95658.00
2023-03-29T11:22:22.652Z,95658.00
2023-03-29T11:23:21.905Z,95648.00
2023-03-29T11:24:23.142Z,95648.00
2023-03-29T11:25:22.074Z,95648.00
2023-03-29T11:26:22.219Z,95644.00
2023-03-29T11:27:22.019Z,95644.00
2023-03-29T11:28:21.984Z,95642.00
2023-03-29T11:29:22.691Z,95644.00
2023-03-29T11:30:23.290Z,95644.00
2023-03-29T11:31:22.277Z,95648.00
2023-03-29T11:32:22.175Z,95646.00
2023-03-29T11:33:21.979Z,95642.00
2023-03-29T11:34:22.004Z,95642.00
2023-03-29T11:35:21.968Z,95648.00
2023-03-29T11:36:22.122Z,95642.00
2023-03-29T11:37:21.911Z,95640.00
2023-03-29T11:38:21.919Z,95640.00
2023-03-29T11:39:21.968Z,95638.00
2023-03-29T11:40:22.715Z,95642.00
2023-03-29T11:41:22.071Z,95638.00
2023-03-29T11:42:21.937Z,95638.00
2023-03-29T11:43:21.841Z,95636.00
2023-03-29T11:44:21.839Z,95638.00
2023-03-29T11:45:21.769Z,95634.00
2023-03-29T11:46:22.167Z,95638.00
2023-03-29T11:47:21.870Z,95640.00
2023-03-29T11:48:21.852Z,95638.00